Time;durP1;ratioP1;P1;durP2;ratioP2;P2;SDS_P1;SDS_P2;PMS_P1;PMS_P2;Temp;Humidity;BMP_temperature;BMP_pressure;BME280_temperature;BME280_humidity;BME280_pressure;Samples;Min_cycle;Max_cycle;Signal;HPM_P1;HPM_P2
2023/09/15 00:01:30;;;;;;;15.60;12.18;;;;;;;13.45;97.09;101917.72;5044517;28;20843;-54
2023/09/15 00:03:55;;;;;;;15.27;12.35;;;;;;;13.45;97.54;101928.41;5042929;28;20072;-52
2023/09/15 00:06:20;;;;;;;15.98;11.73;;;;;;;13.42;97.76;101917.09;5046387;28;20394;-52
2023/09/15 00:08:46;;;;;;;15.52;12.07;;;;;;;13.41;96.88;101918.91;5043375;28;20040;-52
2023/09/15 00:11:15;;;;;;;15.15;12.82;;;;;;;13.32;98.39;101917.75;5047731;28;20615;-52
2023/09/15 00:13:41;;;;;;;14.80;11.98;;;;;;;13.32;98.15;101912.44;5047446;28;20036;-52
2023/09/15 00:16:07;;;;;;;17.42;12.15;;;;;;;13.30;97.99;101908.13;5045684;28;20035;-52
2023/09/15 00:18:33;;;;;;;14.23;11.25;;;;;;;13.30;98.15;101919.63;5050136;28;20032;-52
2023/09/15 00:20:58;;;;;;;16.23;12.45;;;;;;;13.27;98.65;101909.19;5043271;28;20055;-53
2023/09/15 00:23:24;;;;;;;14.43;11.82;;;;;;;13.26;98.47;101909.31;5044981;28;20038;-52
2023/09/15 00:25:52;;;;;;;15.50;12.60;;;;;;;13.25;98.71;101904.91;5044124;28;20056;-53
2023/09/15 00:28:17;;;;;;;13.57;11.73;;;;;;;13.19;98.41;101908.00;5055387;28;20026;-52
2023/09/15 00:30:42;;;;;;;13.52;12.00;;;;;;;13.20;98.48;101909.72;5047004;28;20473;-52
2023/09/15 00:33:08;;;;;;;15.88;12.27;;;;;;;13.14;98.79;101905.69;5049769;28;20029;-52
2023/09/15 00:35:33;;;;;;;15.60;12.32;;;;;;;13.14;98.73;101903.03;5047773;28;20033;-53
2023/09/15 00:37:59;;;;;;;15.68;12.60;;;;;;;13.11;99.28;101905.91;5044846;28;20086;-52
2023/09/15 00:40:24;;;;;;;16.38;12.93;;;;;;;13.09;99.17;101899.81;5047986;28;20037;-52
2023/09/15 00:42:51;;;;;;;14.40;12.85;;;;;;;13.06;99.39;101900.88;5051041;28;20028;-52
2023/09/15 00:45:22;;;;;;;17.33;12.88;;;;;;;13.05;98.84;101899.16;5046481;28;20590;-53
2023/09/15 00:47:53;;;;;;;16.73;13.30;;;;;;;13.04;99.01;101901.94;5051376;28;20031;-53
2023/09/15 00:50:22;;;;;;;16.95;13.15;;;;;;;12.97;98.95;101898.84;5041421;28;20052;-52
2023/09/15 00:52:57;;;;;;;17.58;12.80;;;;;;;12.97;99.24;101901.53;5039129;28;20025;-52
2023/09/15 00:55:24;;;;;;;16.83;13.75;;;;;;;12.93;99.34;101898.22;5042335;28;20475;-52
2023/09/15 00:57:51;;;;;;;14.68;13.10;;;;;;;12.90;99.72;101897.59;5046388;28;20021;-53
2023/09/15 01:00:19;;;;;;;17.52;13.38;;;;;;;12.92;99.29;101898.31;5054198;28;20020;-52
2023/09/15 01:02:46;;;;;;;15.20;13.38;;;;;;;12.86;99.65;101893.44;5041027;28;20072;-52
2023/09/15 01:05:19;;;;;;;16.95;14.02;;;;;;;12.81;99.51;101895.56;5041586;28;20117;-52
2023/09/15 01:07:49;;;;;;;16.70;13.68;;;;;;;12.80;99.83;101892.03;5046711;28;20104;-52
2023/09/15 01:10:15;;;;;;;15.95;13.82;;;;;;;12.72;100.00;101891.72;5044341;28;20372;-52
2023/09/15 01:12:42;;;;;;;15.52;12.93;;;;;;;12.73;99.96;101890.75;5044455;28;20029;-53
2023/09/15 01:15:08;;;;;;;15.63;13.63;;;;;;;12.67;99.99;101891.19;5043908;28;20071;-52
2023/09/15 01:17:43;;;;;;;15.50;13.90;;;;;;;12.69;100.00;101886.59;5050536;28;20021;-51
2023/09/15 01:20:10;;;;;;;15.00;13.40;;;;;;;12.63;99.30;101887.03;5049951;28;20060;-52
2023/09/15 01:22:54;;;;;;;15.23;13.20;;;;;;;12.59;99.78;101884.56;5052051;28;20033;-52
2023/09/15 01:25:57;;;;;;;17.10;13.77;;;;;;;12.59;100.00;101876.56;5048491;28;20033;-52
2023/09/15 01:28:37;;;;;;;14.98;13.32;;;;;;;12.55;99.60;101874.22;5050617;28;20121;-52
2023/09/15 01:31:03;;;;;;;17.45;13.25;;;;;;;12.54;100.00;101889.38;5049845;28;20029;-52
2023/09/15 01:33:30;;;;;;;19.52;14.10;;;;;;;12.53;100.00;101877.00;5050756;28;20030;-52
2023/09/15 01:35:55;;;;;;;15.80;14.15;;;;;;;12.48;100.00;101880.94;5051079;28;20490;-54
2023/09/15 01:38:21;;;;;;;16.02;14.02;;;;;;;12.39;99.89;101872.59;5041638;28;20060;-52
2023/09/15 01:40:46;;;;;;;17.08;14.07;;;;;;;12.37;100.00;101871.00;5036554;28;20057;-52
2023/09/15 01:43:11;;;;;;;18.80;14.88;;;;;;;12.33;100.00;101867.69;5043314;28;20063;-52
2023/09/15 01:45:37;;;;;;;17.65;13.82;;;;;;;12.31;100.00;101869.59;5042551;28;20025;-52
2023/09/15 01:48:04;;;;;;;16.42;14.65;;;;;;;12.27;100.00;101865.44;5044285;28;20074;-53
2023/09/15 01:50:30;;;;;;;19.33;14.98;;;;;;;12.24;100.00;101865.66;5043265;28;20037;-52
2023/09/15 01:52:56;;;;;;;16.20;14.15;;;;;;;12.20;100.00;101866.81;5052145;28;20028;-52
2023/09/15 01:55:21;;;;;;;15.63;13.82;;;;;;;12.21;100.00;101864.03;5050138;28;20371;-54
2023/09/15 01:57:47;;;;;;;14.88;13.38;;;;;;;12.18;100.00;101860.75;5043272;28;20471;-52
2023/09/15 02:00:13;;;;;;;16.55;14.80;;;;;;;12.15;100.00;101860.94;5049084;28;20029;-52
2023/09/15 02:02:38;;;;;;;15.80;13.93;;;;;;;12.18;100.00;101864.25;5055457;28;20021;-53
2023/09/15 02:05:04;;;;;;;16.35;14.23;;;;;;;12.13;100.00;101863.69;5045459;28;20080;-52
2023/09/15 02:07:29;;;;;;;15.80;13.57;;;;;;;12.16;100.00;101862.66;5047507;28;20391;-52
2023/09/15 02:09:54;;;;;;;17.95;15.68;;;;;;;12.08;100.00;101862.31;5042827;28;20021;-53
2023/09/15 02:12:20;;;;;;;15.52;13.88;;;;;;;12.10;100.00;101866.56;5047762;28;20119;-52
2023/09/15 02:14:45;;;;;;;17.35;14.68;;;;;;;12.07;100.00;101869.44;5046565;28;20461;-52
2023/09/15 02:17:15;;;;;;;17.33;14.70;;;;;;;12.03;100.00;101863.47;5053558;28;20451;-52
2023/09/15 02:19:41;;;;;;;17.67;14.85;;;;;;;11.98;100.00;101865.56;5041624;28;20577;-53
2023/09/15 02:22:07;;;;;;;16.73;14.77;;;;;;;11.94;100.00;101861.44;5045596;28;20025;-52
2023/09/15 02:24:32;;;;;;;18.20;14.35;;;;;;;11.92;100.00;101863.31;5049394;28;20079;-52
2023/09/15 02:26:59;;;;;;;19.23;14.90;;;;;;;11.86;100.00;101866.38;5046894;28;20116;-52
2023/09/15 02:29:25;;;;;;;18.48;14.80;;;;;;;11.81;100.00;101866.66;5054363;28;20454;-52
2023/09/15 02:31:51;;;;;;;17.52;15.05;;;;;;;11.79;100.00;101854.38;5052407;28;20441;-52
2023/09/15 02:34:16;;;;;;;16.48;13.77;;;;;;;11.76;100.00;101846.63;5050424;28;20047;-52
2023/09/15 02:36:42;;;;;;;16.02;14.32;;;;;;;11.78;100.00;101848.22;5048492;28;20120;-52
2023/09/15 02:39:07;;;;;;;18.15;15.02;;;;;;;11.74;100.00;101849.41;5053707;28;20099;-52
2023/09/15 02:41:32;;;;;;;16.58;14.88;;;;;;;11.73;100.00;101850.34;5048380;28;20021;-53
2023/09/15 02:43:59;;;;;;;18.35;14.63;;;;;;;11.73;100.00;101846.84;5044227;28;20060;-52
2023/09/15 02:46:24;;;;;;;15.32;13.73;;;;;;;11.71;100.00;101851.38;5053612;28;20024;-53
2023/09/15 02:48:49;;;;;;;16.52;14.05;;;;;;;11.69;100.00;101848.84;5038831;28;20024;-52
2023/09/15 02:51:15;;;;;;;19.15;14.75;;;;;;;11.66;100.00;101844.56;5046950;28;20029;-53
2023/09/15 02:53:40;;;;;;;16.55;14.35;;;;;;;11.63;100.00;101843.91;5039768;28;20388;-52
2023/09/15 02:56:05;;;;;;;16.05;14.38;;;;;;;11.59;100.00;101848.59;5044533;28;20103;-52
2023/09/15 02:58:34;;;;;;;18.33;15.23;;;;;;;11.56;100.00;101851.44;5041695;28;20033;-53
2023/09/15 03:00:59;;;;;;;17.93;14.20;;;;;;;11.57;100.00;101845.16;5045916;28;20037;-52
2023/09/15 03:03:25;;;;;;;17.38;14.90;;;;;;;11.55;100.00;101852.38;5049670;28;20299;-52
2023/09/15 03:06:10;;;;;;;15.38;13.73;;;;;;;11.57;100.00;101845.16;5050779;28;20074;-52
2023/09/15 03:08:36;;;;;;;16.13;14.43;;;;;;;11.51;100.00;101840.25;5049580;28;20525;-55
2023/09/15 03:11:02;;;;;;;15.50;13.90;;;;;;;11.51;100.00;101839.38;5054499;28;20017;-52
2023/09/15 03:13:28;;;;;;;16.33;13.93;;;;;;;11.45;100.00;101832.66;5046044;28;20033;-52
2023/09/15 03:15:53;;;;;;;20.33;15.15;;;;;;;11.43;100.00;101845.19;5043282;28;20030;-52
2023/09/15 03:18:18;;;;;;;18.58;14.48;;;;;;;11.41;100.00;101841.78;5053175;28;20029;-52
2023/09/15 03:20:44;;;;;;;15.15;13.52;;;;;;;11.39;100.00;101835.69;5047861;28;20541;-52
2023/09/15 03:23:09;;;;;;;17.13;14.82;;;;;;;11.36;100.00;101833.22;5046394;28;20033;-53
2023/09/15 03:25:34;;;;;;;16.88;14.30;;;;;;;11.34;100.00;101829.81;5044468;28;20383;-52
2023/09/15 03:28:00;;;;;;;18.30;14.52;;;;;;;11.35;100.00;101832.38;5046737;28;20057;-52
2023/09/15 03:30:26;;;;;;;15.50;13.90;;;;;;;11.33;100.00;101821.00;5044516;28;20352;-52
2023/09/15 03:32:51;;;;;;;15.32;13.73;;;;;;;11.32;100.00;101821.94;5050166;28;20035;-52
2023/09/15 03:35:16;;;;;;;16.52;13.93;;;;;;;11.33;100.00;101825.47;5044854;28;20116;-52
2023/09/15 03:37:42;;;;;;;15.93;13.30;;;;;;;11.27;100.00;101819.59;5049956;28;20406;-52
2023/09/15 03:40:11;;;;;;;16.58;14.80;;;;;;;11.23;100.00;101822.53;5053100;28;20044;-52
2023/09/15 03:42:37;;;;;;;16.65;13.90;;;;;;;11.17;100.00;101823.78;5051932;28;20017;-52
2023/09/15 03:45:04;;;;;;;21.75;14.65;;;;;;;11.18;100.00;101819.31;5044761;28;20052;-52
2023/09/15 03:47:30;;;;;;;17.25;14.32;;;;;;;11.17;100.00;101813.13;5050600;28;20017;-52
2023/09/15 03:49:55;;;;;;;17.45;14.50;;;;;;;11.13;100.00;101822.28;5038384;28;20565;-52
2023/09/15 03:52:20;;;;;;;15.82;14.20;;;;;;;11.14;100.00;101818.66;5046286;28;20029;-55
2023/09/15 03:54:45;;;;;;;16.73;13.68;;;;;;;11.13;100.00;101821.44;5044715;28;20042;-52
2023/09/15 03:57:12;;;;;;;17.98;14.57;;;;;;;11.09;100.00;101816.28;5049083;28;20086;-53
2023/09/15 03:59:38;;;;;;;16.25;13.55;;;;;;;11.09;100.00;101818.94;5043480;28;20033;-54
2023/09/15 04:02:03;;;;;;;18.73;15.20;;;;;;;11.06;100.00;101807.66;5048691;28;20029;-52
2023/09/15 04:04:29;;;;;;;19.08;14.43;;;;;;;11.02;100.00;101812.28;5051094;28;20033;-52
2023/09/15 04:06:54;;;;;;;15.85;14.15;;;;;;;11.00;100.00;101813.34;5052340;28;20052;-52
2023/09/15 04:09:20;;;;;;;16.85;14.82;;;;;;;10.97;100.00;101808.22;5051913;28;20033;-54
2023/09/15 04:11:45;;;;;;;19.42;14.75;;;;;;;10.97;100.00;101803.75;5049959;28;20471;-52
2023/09/15 04:14:10;;;;;;;17.48;15.07;;;;;;;10.97;100.00;101809.06;5054247;28;20064;-52
2023/09/15 04:16:37;;;;;;;22.13;15.13;;;;;;;10.95;100.00;101810.97;5048737;28;20108;-52
2023/09/15 04:19:03;;;;;;;17.67;14.52;;;;;;;10.92;100.00;101812.03;5052068;28;20033;-52
2023/09/15 04:21:29;;;;;;;18.17;13.93;;;;;;;10.90;100.00;101805.09;5054761;28;20042;-52
2023/09/15 04:23:54;;;;;;;18.73;15.23;;;;;;;10.90;100.00;101805.09;5046045;28;20490;-53
2023/09/15 04:26:20;;;;;;;19.00;14.10;;;;;;;10.88;100.00;101805.19;5044884;28;20032;-55
2023/09/15 04:28:46;;;;;;;16.92;15.13;;;;;;;10.87;100.00;101808.78;5051755;28;20033;-53
2023/09/15 04:31:11;;;;;;;17.90;14.18;;;;;;;10.85;100.00;101805.38;5045670;28;20026;-52
2023/09/15 04:33:36;;;;;;;17.83;15.32;;;;;;;10.85;100.00;101796.56;5051861;28;20029;-53
2023/09/15 04:36:03;;;;;;;16.40;14.60;;;;;;;10.83;100.00;101801.97;5050579;28;20467;-54
2023/09/15 04:38:30;;;;;;;18.20;14.57;;;;;;;10.84;100.00;101797.50;5047421;28;20052;-53
2023/09/15 04:40:55;;;;;;;16.83;14.10;;;;;;;10.82;100.00;101794.94;5048305;28;20029;-52
2023/09/15 04:43:21;;;;;;;17.02;14.38;;;;;;;10.83;100.00;101801.13;5056261;28;20123;-53
2023/09/15 04:45:46;;;;;;;17.70;14.38;;;;;;;10.79;100.00;101799.59;5050267;28;20115;-52
2023/09/15 04:48:12;;;;;;;18.40;13.00;;;;;;;10.82;100.00;101797.59;5047358;28;20441;-52
2023/09/15 04:50:37;;;;;;;16.92;13.95;;;;;;;10.77;100.00;101796.19;5047006;28;20104;-52
2023/09/15 04:53:04;;;;;;;15.38;13.77;;;;;;;10.80;100.00;101799.50;5042799;28;20112;-52
2023/09/15 04:55:30;;;;;;;16.38;13.73;;;;;;;10.80;100.00;101801.31;5045741;28;20108;-52
2023/09/15 04:57:56;;;;;;;16.02;14.00;;;;;;;10.76;100.00;101807.75;5053207;28;20033;-52
2023/09/15 05:00:23;;;;;;;16.65;13.98;;;;;;;10.76;100.00;101813.06;5052618;28;20025;-52
2023/09/15 05:02:49;;;;;;;16.20;12.85;;;;;;;10.73;100.00;101808.81;5053557;28;20020;-52
2023/09/15 05:05:15;;;;;;;17.55;13.75;;;;;;;10.69;100.00;101805.50;5043553;28;20041;-52
2023/09/15 05:07:40;;;;;;;19.30;13.52;;;;;;;10.67;100.00;101811.84;5057293;28;20044;-52
2023/09/15 05:10:08;;;;;;;17.85;13.18;;;;;;;10.68;100.00;101819.72;5045736;28;20382;-53
2023/09/15 05:12:33;;;;;;;17.02;13.00;;;;;;;10.67;100.00;101818.00;5053892;28;20098;-52
2023/09/15 05:14:58;;;;;;;18.23;13.45;;;;;;;10.64;100.00;101814.69;5046705;28;20421;-52
2023/09/15 05:17:23;;;;;;;16.30;14.27;;;;;;;10.65;100.00;101816.41;5050860;28;20119;-55
2023/09/15 05:19:50;;;;;;;16.73;13.45;;;;;;;10.64;100.00;101823.53;5045626;28;20029;-52
2023/09/15 05:22:16;;;;;;;17.00;13.27;;;;;;;10.62;100.00;101820.09;5048130;28;20025;-53
2023/09/15 05:24:41;;;;;;;14.07;12.65;;;;;;;10.62;100.00;101820.09;5048426;28;20025;-52
2023/09/15 05:27:07;;;;;;;15.52;13.93;;;;;;;10.60;100.00;101823.81;5045923;28;20032;-53
2023/09/15 05:29:32;;;;;;;14.70;13.20;;;;;;;10.61;100.00;101825.50;5047687;28;20544;-55
2023/09/15 05:31:57;;;;;;;15.65;13.93;;;;;;;10.59;100.00;101819.44;5057437;28;20083;-53
2023/09/15 05:34:23;;;;;;;15.43;12.63;;;;;;;10.58;100.00;101820.41;5047204;28;20028;-55
2023/09/15 05:36:49;;;;;;;16.52;13.50;;;;;;;10.58;100.00;101821.25;5044612;28;20049;-56
2023/09/15 05:39:15;;;;;;;15.20;13.40;;;;;;;10.59;100.00;101816.78;5047105;28;20376;-53
2023/09/15 05:41:40;;;;;;;15.77;14.07;;;;;;;10.57;100.00;101824.84;5055181;28;20032;-55
2023/09/15 05:44:05;;;;;;;15.77;13.52;;;;;;;10.58;100.00;101826.56;5040589;28;20057;-53
2023/09/15 05:46:31;;;;;;;14.90;13.32;;;;;;;10.59;100.00;101816.78;5040212;28;20028;-53
2023/09/15 05:48:56;;;;;;;20.58;13.13;;;;;;;10.61;100.00;101812.22;5038470;28;20036;-53
2023/09/15 05:51:21;;;;;;;17.05;12.98;;;;;;;10.63;100.00;101816.50;5041602;28;20021;-52
2023/09/15 05:53:47;;;;;;;17.15;12.85;;;;;;;10.63;100.00;101821.81;5051762;28;20020;-53
2023/09/15 05:56:12;;;;;;;17.40;14.23;;;;;;;10.66;100.00;101820.78;5046787;28;20133;-53
2023/09/15 05:58:37;;;;;;;14.30;12.85;;;;;;;10.68;100.00;101825.03;5046328;28;20029;-52
2023/09/15 06:01:03;;;;;;;17.40;13.30;;;;;;;10.70;100.00;101831.09;5044708;28;20104;-52
2023/09/15 06:03:28;;;;;;;18.75;13.25;;;;;;;10.73;100.00;101822.09;5042758;28;20087;-59
2023/09/15 06:05:53;;;;;;;15.68;12.93;;;;;;;10.76;100.00;101821.91;5049583;28;20017;-57
2023/09/15 06:08:21;;;;;;;15.25;13.02;;;;;;;10.78;100.00;101830.66;5044522;28;20087;-51
2023/09/15 06:10:47;;;;;;;16.33;12.68;;;;;;;10.82;100.00;101829.50;5049777;28;20028;-53
2023/09/15 06:13:14;;;;;;;19.52;13.40;;;;;;;10.86;100.00;101823.06;5055794;28;20313;-52
2023/09/15 06:15:39;;;;;;;16.23;13.60;;;;;;;10.91;100.00;101825.44;5047603;28;20131;-51
2023/09/15 06:18:05;;;;;;;19.70;13.63;;;;;;;10.96;100.00;101833.09;5035891;28;20061;-55
2023/09/15 06:20:31;;;;;;;16.48;13.57;;;;;;;11.02;100.00;101830.06;5038160;28;20056;-52
2023/09/15 06:22:57;;;;;;;14.00;11.90;;;;;;;11.06;100.00;101827.13;5043450;28;20024;-52
2023/09/15 06:25:23;;;;;;;15.77;12.57;;;;;;;11.13;100.00;101830.25;5047017;28;20071;-51
2023/09/15 06:27:49;;;;;;;18.10;13.05;;;;;;;11.19;100.00;101829.00;5045021;28;20033;-52
2023/09/15 06:30:14;;;;;;;15.48;13.90;;;;;;;11.25;100.00;101837.44;5052904;28;20463;-52
2023/09/15 06:32:40;;;;;;;17.17;12.93;;;;;;;11.29;100.00;101823.00;5049272;28;20033;-52
2023/09/15 06:35:06;;;;;;;15.35;11.95;;;;;;;11.37;100.00;101821.66;5052952;28;20047;-52
2023/09/15 06:37:31;;;;;;;15.80;12.23;;;;;;;11.44;100.00;101815.84;5052088;28;20036;-54
2023/09/15 06:39:56;;;;;;;14.32;12.57;;;;;;;11.51;100.00;101816.31;5047804;28;20514;-54
2023/09/15 06:42:21;;;;;;;14.45;12.10;;;;;;;11.58;100.00;101819.41;5050512;28;20444;-52
2023/09/15 06:44:47;;;;;;;14.32;11.80;;;;;;;11.64;100.00;101813.66;5047911;28;20052;-52
2023/09/15 06:47:12;;;;;;;15.70;11.70;;;;;;;11.74;100.00;101819.25;5046635;28;20040;-52
2023/09/15 06:49:38;;;;;;;12.88;11.20;;;;;;;11.82;100.00;101811.59;5038137;28;20029;-53
2023/09/15 06:52:05;;;;;;;13.52;11.90;;;;;;;11.89;100.00;101806.72;5044263;28;20025;-51
2023/09/15 06:54:30;;;;;;;15.18;11.88;;;;;;;11.95;100.00;101807.19;5044800;28;20033;-53
2023/09/15 06:56:55;;;;;;;15.85;11.88;;;;;;;12.03;100.00;101809.38;5045785;28;20463;-55
2023/09/15 06:59:21;;;;;;;13.85;11.15;;;;;;;12.10;100.00;101809.81;5049647;28;20027;-52
2023/09/15 07:01:46;;;;;;;14.88;11.02;;;;;;;12.20;100.00;101802.88;5034797;28;20501;-54
2023/09/15 07:04:13;;;;;;;15.05;10.60;;;;;;;12.29;100.00;101804.06;5048762;28;20039;-52
2023/09/15 07:06:39;;;;;;;14.15;10.38;;;;;;;12.37;100.00;101807.94;5055250;28;20083;-53
2023/09/15 07:09:04;;;;;;;13.70;10.13;;;;;;;12.46;100.00;101809.09;5043994;28;20482;-54
2023/09/15 07:11:30;;;;;;;11.77;10.20;;;;;;;12.56;100.00;101807.50;5045308;28;20022;-53
2023/09/15 07:13:55;;;;;;;14.18;10.43;;;;;;;12.69;100.00;101795.97;5060587;28;20021;-52
2023/09/15 07:16:20;;;;;;;13.60;10.13;;;;;;;12.82;100.00;101796.78;5043772;28;20060;-52
2023/09/15 07:18:46;;;;;;;13.27;10.43;;;;;;;12.94;100.00;101793.28;5043393;28;20032;-52
2023/09/15 07:21:11;;;;;;;13.30;10.18;;;;;;;13.17;100.00;101793.41;5045435;28;20021;-51
2023/09/15 07:23:36;;;;;;;13.85;10.15;;;;;;;13.33;100.00;101793.19;5043273;28;20025;-52
2023/09/15 07:26:01;;;;;;;9.90;8.90;;;;;;;13.56;100.00;101793.34;5044651;28;20155;-51
2023/09/15 07:28:27;;;;;;;16.58;9.38;;;;;;;13.78;100.00;101792.56;5044386;28;20029;-54
2023/09/15 07:31:01;;;;;;;11.32;8.95;;;;;;;13.98;100.00;101791.06;5046962;28;20162;-53
2023/09/15 07:33:26;;;;;;;11.43;8.52;;;;;;;14.20;100.00;101784.94;5045175;28;20056;-52
2023/09/15 07:35:58;;;;;;;13.85;8.63;;;;;;;14.47;100.00;101792.66;5050655;28;20063;-54
2023/09/15 07:38:23;;;;;;;10.85;7.75;;;;;;;14.71;98.67;101783.69;5042504;28;20032;-52
2023/09/15 07:40:49;;;;;;;12.10;8.00;;;;;;;14.93;96.88;101783.66;5047953;28;20028;-53
2023/09/15 07:43:14;;;;;;;10.13;8.50;;;;;;;15.29;96.62;101781.69;5045367;28;20052;-52
2023/09/15 07:45:39;;;;;;;8.85;7.15;;;;;;;15.62;96.37;101787.03;5054707;28;20029;-53
2023/09/15 07:48:05;;;;;;;10.93;7.43;;;;;;;15.77;92.73;101784.94;5040672;28;20094;-53
2023/09/15 07:50:33;;;;;;;9.77;7.72;;;;;;;16.01;92.16;101788.25;5042774;28;20037;-53
2023/09/15 07:52:58;;;;;;;10.00;7.30;;;;;;;16.22;91.45;101784.69;5043063;28;20137;-52
2023/09/15 07:55:24;;;;;;;9.02;6.93;;;;;;;16.43;88.19;101784.69;5039367;28;20176;-52
2023/09/15 07:57:49;;;;;;;10.45;7.50;;;;;;;16.62;86.68;101789.28;5043876;28;20099;-53
2023/09/15 08:00:15;;;;;;;11.95;6.93;;;;;;;16.90;86.90;101781.53;5039209;28;20543;-52
2023/09/15 08:02:41;;;;;;;9.80;7.32;;;;;;;17.14;83.51;101779.34;5042048;28;20024;-51
2023/09/15 08:05:06;;;;;;;8.20;6.43;;;;;;;17.29;83.61;101781.66;5033781;28;20455;-52
2023/09/15 08:07:31;;;;;;;10.30;6.47;;;;;;;17.45;81.05;101787.31;5032221;28;20095;-54
2023/09/15 08:09:58;;;;;;;12.60;6.90;;;;;;;17.62;81.21;101774.16;5043068;28;20396;-53
2023/09/15 08:12:24;;;;;;;9.40;6.70;;;;;;;17.84;79.62;101781.13;5047372;28;20501;-53
2023/09/15 08:14:49;;;;;;;11.32;6.20;;;;;;;18.07;79.03;101776.31;5046505;28;20435;-52
2023/09/15 08:17:18;;;;;;;8.38;5.93;;;;;;;18.25;77.58;101779.97;5045272;28;20028;-52
2023/09/15 08:19:43;;;;;;;8.95;6.05;;;;;;;18.44;76.52;101778.22;5046497;28;20025;-52
2023/09/15 08:22:08;;;;;;;10.70;6.93;;;;;;;18.54;76.53;101783.56;5043896;28;20027;-52
2023/09/15 08:24:34;;;;;;;10.73;6.15;;;;;;;18.74;75.96;101778.94;5040831;28;20061;-53
2023/09/15 08:26:59;;;;;;;9.38;5.80;;;;;;;18.82;73.81;101773.69;5040160;28;20039;-53
2023/09/15 08:29:24;;;;;;;9.25;5.60;;;;;;;19.13;73.87;101774.22;5044986;28;20033;-52
2023/09/15 08:31:50;;;;;;;8.40;5.68;;;;;;;19.33;73.20;101768.72;5037878;28;20549;-53
2023/09/15 08:34:15;;;;;;;9.63;5.68;;;;;;;19.57;72.18;101770.81;5046399;28;20542;-52
2023/09/15 08:36:42;;;;;;;7.25;5.28;;;;;;;19.84;72.90;101771.75;5040417;28;20033;-52
2023/09/15 08:39:07;;;;;;;9.27;5.53;;;;;;;19.99;70.33;101772.88;5049184;28;20043;-54
2023/09/15 08:41:47;;;;;;;8.77;5.60;;;;;;;20.10;70.61;101771.78;5048415;28;20544;-52
2023/09/15 08:44:16;;;;;;;8.98;5.60;;;;;;;20.32;68.88;101773.13;5046312;28;20052;-52
2023/09/15 08:46:43;;;;;;;9.88;5.30;;;;;;;20.32;66.41;101771.25;5044959;28;20475;-53
2023/09/15 08:49:09;;;;;;;10.95;5.38;;;;;;;20.45;66.71;101759.19;5043119;28;20051;-53
2023/09/15 08:51:36;;;;;;;7.55;4.80;;;;;;;20.69;67.12;101762.03;5038582;28;20033;-52
2023/09/15 08:54:01;;;;;;;8.55;5.80;;;;;;;20.88;65.59;101763.66;5040673;28;20025;-52
2023/09/15 08:56:27;;;;;;;10.02;4.80;;;;;;;21.28;66.52;101757.66;5050797;28;20033;-52
2023/09/15 08:58:53;;;;;;;6.80;5.00;;;;;;;21.38;63.65;101758.34;5042733;28;20025;-52
2023/09/15 09:01:19;;;;;;;6.55;4.80;;;;;;;21.44;61.60;101757.69;5052578;28;20017;-52
2023/09/15 09:03:44;;;;;;;8.25;4.90;;;;;;;21.72;62.26;101749.31;5051210;28;20063;-53
2023/09/15 09:06:12;;;;;;;7.03;4.28;;;;;;;21.90;60.72;101755.38;5053415;28;20021;-52
2023/09/15 09:08:40;;;;;;;9.77;5.35;;;;;;;22.09;60.87;101756.03;5036690;28;20052;-55
2023/09/15 09:11:06;;;;;;;7.85;4.82;;;;;;;22.23;61.01;101755.31;5042164;28;20017;-52
2023/09/15 09:13:31;;;;;;;6.13;4.03;;;;;;;22.41;59.31;101760.56;5047967;28;20035;-54
2023/09/15 09:15:57;;;;;;;5.97;4.32;;;;;;;22.50;59.85;101750.56;5034468;28;20399;-51
2023/09/15 09:18:22;;;;;;;10.48;4.78;;;;;;;22.67;59.60;101752.19;5038693;28;20025;-53
2023/09/15 09:20:50;;;;;;;5.97;4.60;;;;;;;22.69;58.45;101754.72;5042753;28;20029;-52
2023/09/15 09:23:18;;;;;;;6.22;4.13;;;;;;;22.81;58.44;101745.16;5056624;28;20028;-51
2023/09/15 09:25:45;;;;;;;10.25;4.22;;;;;;;22.99;58.79;101744.09;5049209;28;20036;-55
2023/09/15 09:28:11;;;;;;;6.22;4.25;;;;;;;23.02;57.16;101752.69;5046417;28;20108;-53
2023/09/15 09:30:36;;;;;;;5.65;3.97;;;;;;;23.16;56.02;101748.41;5049414;28;20043;-54
2023/09/15 09:33:03;;;;;;;5.25;3.75;;;;;;;23.41;54.93;101748.25;5048595;28;20045;-55
2023/09/15 09:35:28;;;;;;;6.28;4.03;;;;;;;23.56;54.45;101745.59;5050202;28;20031;-53
2023/09/15 09:37:55;;;;;;;6.38;4.05;;;;;;;23.59;53.77;101746.06;5049975;28;20029;-54
2023/09/15 09:40:22;;;;;;;5.78;3.50;;;;;;;23.81;54.84;101738.94;5048748;28;20104;-53
2023/09/15 09:42:48;;;;;;;6.10;3.28;;;;;;;23.92;55.29;101740.41;5049054;28;20033;-53
2023/09/15 09:45:14;;;;;;;6.97;3.40;;;;;;;24.07;53.25;101732.28;5043997;28;20048;-52
2023/09/15 09:47:40;;;;;;;5.68;3.75;;;;;;;24.38;53.41;101733.97;5040536;28;20384;-55
2023/09/15 09:50:09;;;;;;;8.40;4.15;;;;;;;24.54;52.85;101725.63;5047432;28;20034;-52
2023/09/15 09:52:35;;;;;;;5.78;3.78;;;;;;;24.81;51.83;101728.72;5050777;28;20037;-52
2023/09/15 09:55:04;;;;;;;4.82;3.47;;;;;;;24.81;52.72;101725.16;5040156;28;20515;-53
2023/09/15 09:57:30;;;;;;;6.25;3.38;;;;;;;24.99;51.99;101719.31;5047607;28;20029;-54
2023/09/15 09:59:55;;;;;;;6.60;3.05;;;;;;;25.32;49.23;101722.41;5047310;28;20020;-53
2023/09/15 10:02:20;;;;;;;6.47;3.88;;;;;;;25.28;49.99;101716.53;5048042;28;20490;-52
2023/09/15 10:04:46;;;;;;;6.65;3.80;;;;;;;25.44;49.83;101717.28;5045134;28;20051;-54
2023/09/15 10:07:11;;;;;;;4.32;3.42;;;;;;;25.66;50.37;101718.09;5047394;28;20033;-53
2023/09/15 10:09:39;;;;;;;4.47;2.70;;;;;;;25.80;50.08;101716.34;5047367;28;20562;-53
2023/09/15 10:12:04;;;;;;;4.13;3.33;;;;;;;25.75;48.21;101718.81;5046334;28;20372;-53
2023/09/15 10:14:30;;;;;;;4.63;3.22;;;;;;;26.02;48.67;101706.28;5046433;28;20108;-52
2023/09/15 10:16:57;;;;;;;5.47;3.30;;;;;;;25.85;47.70;101701.09;5036021;28;20190;-52
2023/09/15 10:19:24;;;;;;;6.18;3.33;;;;;;;25.92;48.54;101695.69;5042686;28;20395;-52
2023/09/15 10:21:50;;;;;;;6.70;3.17;;;;;;;25.93;47.09;101683.78;5040681;28;20470;-54
2023/09/15 10:24:15;;;;;;;4.18;3.22;;;;;;;26.18;48.12;101694.22;5046528;28;20025;-55
2023/09/15 10:26:44;;;;;;;5.93;3.45;;;;;;;26.23;47.38;101680.88;5046132;28;20041;-52
2023/09/15 10:29:13;;;;;;;6.30;3.35;;;;;;;26.27;46.77;101679.41;5052293;28;20037;-52
2023/09/15 10:31:42;;;;;;;4.05;3.53;;;;;;;26.19;46.74;101679.56;5046564;28;20499;-53
2023/09/15 10:34:08;;;;;;;6.75;3.40;;;;;;;26.31;47.82;101680.69;5047109;28;20024;-52
2023/09/15 10:36:33;;;;;;;5.80;3.58;;;;;;;26.38;46.57;101684.28;5051039;28;20375;-52
2023/09/15 10:39:19;;;;;;;4.57;3.35;;;;;;;26.48;49.04;101675.75;5046129;28;20030;-52
2023/09/15 10:41:45;;;;;;;5.72;3.67;;;;;;;26.62;45.24;101667.63;5050661;28;20067;-52
2023/09/15 10:44:11;;;;;;;6.28;3.70;;;;;;;26.76;45.46;101672.94;5047743;28;20049;-52
2023/09/15 10:46:38;;;;;;;9.13;3.42;;;;;;;26.90;48.23;101670.25;5047497;28;20029;-52
2023/09/15 10:49:18;;;;;;;6.57;3.72;;;;;;;26.85;47.02;101661.84;5044117;28;20020;-52
2023/09/15 10:52:00;;;;;;;5.05;3.60;;;;;;;26.63;47.02;101659.28;5041359;28;20114;-52
2023/09/15 10:54:35;;;;;;;4.97;3.38;;;;;;;26.59;46.29;101649.78;5042072;28;20036;-53
2023/09/15 10:57:01;;;;;;;6.00;3.42;;;;;;;26.75;46.98;101656.78;5044963;28;20029;-52
2023/09/15 10:59:27;;;;;;;6.82;3.45;;;;;;;26.82;44.41;101646.75;5054201;28;20025;-54
2023/09/15 11:01:53;;;;;;;6.35;3.38;;;;;;;26.72;42.77;101649.03;5047925;28;20156;-51
2023/09/15 11:04:22;;;;;;;3.92;2.75;;;;;;;26.98;44.34;101642.78;5047578;28;20033;-53
2023/09/15 11:06:49;;;;;;;;;;;;;;;27.32;47.59;101646.41;5049462;28;20033;-52